sensor_id;sensor_type;location;lat;lon;timestamp;temperature;humidity
3564;DHT22;1796;52.388;13.096;2023-06-26T00:02:13;18.00;99.90
3564;DHT22;1796;52.388;13.096;2023-06-26T00:04:41;17.90;99.90
3564;DHT22;1796;52.388;13.096;2023-06-26T00:07:08;17.90;99.90
3564;DHT22;1796;52.388;13.096;2023-06-26T00:09:36;17.90;99.90
3564;DHT22;1796;52.388;13.096;2023-06-26T00:12:03;17.90;99.90
3564;DHT22;1796;52.388;13.096;2023-06-26T00:14:30;17.80;99.90
3564;DHT22;1796;52.388;13.096;2023-06-26T00:16:58;17.80;99.90
3564;DHT22;1796;52.388;13.096;2023-06-26T00:19:25;17.80;99.90
3564;DHT22;1796;52.388;13.096;2023-06-26T00:21:52;17.80;99.90
3564;DHT22;1796;52.388;13.096;2023-06-26T00:24:19;17.70;99.90
3564;DHT22;1796;52.388;13.096;2023-06-26T00:26:47;17.70;99.90
3564;DHT22;1796;52.388;13.096;2023-06-26T00:29:14;17.60;99.90
3564;DHT22;1796;52.388;13.096;2023-06-26T00:31:41;17.60;99.90
3564;DHT22;1796;52.388;13.096;2023-06-26T00:34:09;17.60;99.90
3564;DHT22;1796;52.388;13.096;2023-06-26T00:36:36;17.70;99.90
3564;DHT22;1796;52.388;13.096;2023-06-26T00:39:03;17.70;99.90
3564;DHT22;1796;52.388;13.096;2023-06-26T00:41:31;17.70;99.90
3564;DHT22;1796;52.388;13.096;2023-06-26T00:43:57;17.70;99.90
3564;DHT22;1796;52.388;13.096;2023-06-26T00:46:24;17.70;99.90
3564;DHT22;1796;52.388;13.096;2023-06-26T00:48:52;17.70;99.90
3564;DHT22;1796;52.388;13.096;2023-06-26T00:51:22;17.70;99.90
3564;DHT22;1796;52.388;13.096;2023-06-26T00:53:49;17.70;99.90
3564;DHT22;1796;52.388;13.096;2023-06-26T00:56:17;17.70;99.90
3564;DHT22;1796;52.388;13.096;2023-06-26T00:58:45;17.70;99.90
3564;DHT22;1796;52.388;13.096;2023-06-26T01:01:12;17.70;99.90
3564;DHT22;1796;52.388;13.096;2023-06-26T01:03:41;17.60;99.90
3564;DHT22;1796;52.388;13.096;2023-06-26T01:06:09;17.60;99.90
3564;DHT22;1796;52.388;13.096;2023-06-26T01:08:41;17.50;99.90
3564;DHT22;1796;52.388;13.096;2023-06-26T01:11:08;17.50;99.90
3564;DHT22;1796;52.388;13.096;2023-06-26T01:13:36;17.50;99.90
3564;DHT22;1796;52.388;13.096;2023-06-26T01:16:04;17.50;99.90
3564;DHT22;1796;52.388;13.096;2023-06-26T01:18:32;17.40;99.90
3564;DHT22;1796;52.388;13.096;2023-06-26T01:21:02;17.40;99.90
3564;DHT22;1796;52.388;13.096;2023-06-26T01:23:35;17.40;99.90
3564;DHT22;1796;52.388;13.096;2023-06-26T01:26:15;17.40;99.90
3564;DHT22;1796;52.388;13.096;2023-06-26T01:28:43;17.40;99.90
3564;DHT22;1796;52.388;13.096;2023-06-26T01:31:12;17.40;99.90
3564;DHT22;1796;52.388;13.096;2023-06-26T01:33:40;17.30;99.90
3564;DHT22;1796;52.388;13.096;2023-06-26T01:36:08;17.30;99.90
3564;DHT22;1796;52.388;13.096;2023-06-26T01:38:35;17.30;99.90
3564;DHT22;1796;52.388;13.096;2023-06-26T01:41:02;17.20;99.90
3564;DHT22;1796;52.388;13.096;2023-06-26T01:43:36;17.10;99.90
3564;DHT22;1796;52.388;13.096;2023-06-26T01:46:11;17.10;99.90
3564;DHT22;1796;52.388;13.096;2023-06-26T01:48:46;17.00;99.90
3564;DHT22;1796;52.388;13.096;2023-06-26T01:51:17;17.00;99.90
3564;DHT22;1796;52.388;13.096;2023-06-26T01:53:53;16.90;99.90
3564;DHT22;1796;52.388;13.096;2023-06-26T01:56:21;17.00;99.90
3564;DHT22;1796;52.388;13.096;2023-06-26T01:58:51;17.00;99.90
3564;DHT22;1796;52.388;13.096;2023-06-26T02:01:21;17.00;99.90
3564;DHT22;1796;52.388;13.096;2023-06-26T02:03:48;16.90;99.90
3564;DHT22;1796;52.388;13.096;2023-06-26T02:06:15;16.90;99.90
3564;DHT22;1796;52.388;13.096;2023-06-26T02:08:42;16.90;99.90
3564;DHT22;1796;52.388;13.096;2023-06-26T02:11:08;16.90;99.90
3564;DHT22;1796;52.388;13.096;2023-06-26T02:13:35;16.80;99.90
3564;DHT22;1796;52.388;13.096;2023-06-26T02:16:04;16.70;99.90
3564;DHT22;1796;52.388;13.096;2023-06-26T02:18:31;16.80;99.90
3564;DHT22;1796;52.388;13.096;2023-06-26T02:20:57;16.70;99.90
3564;DHT22;1796;52.388;13.096;2023-06-26T02:23:25;16.80;99.90
3564;DHT22;1796;52.388;13.096;2023-06-26T02:25:52;16.80;99.90
3564;DHT22;1796;52.388;13.096;2023-06-26T02:28:19;16.80;99.90
3564;DHT22;1796;52.388;13.096;2023-06-26T02:30:45;16.80;99.90
3564;DHT22;1796;52.388;13.096;2023-06-26T02:33:14;16.80;99.90
3564;DHT22;1796;52.388;13.096;2023-06-26T02:35:40;16.90;99.90
3564;DHT22;1796;52.388;13.096;2023-06-26T02:38:07;16.90;99.90
3564;DHT22;1796;52.388;13.096;2023-06-26T02:40:35;16.90;99.90
3564;DHT22;1796;52.388;13.096;2023-06-26T02:43:01;16.90;99.90
3564;DHT22;1796;52.388;13.096;2023-06-26T02:45:28;16.90;99.90
3564;DHT22;1796;52.388;13.096;2023-06-26T02:47:55;17.00;99.90
3564;DHT22;1796;52.388;13.096;2023-06-26T02:50:23;17.00;99.90
3564;DHT22;1796;52.388;13.096;2023-06-26T02:52:50;17.10;99.90
3564;DHT22;1796;52.388;13.096;2023-06-26T02:55:18;17.20;99.90
3564;DHT22;1796;52.388;13.096;2023-06-26T02:57:45;17.20;99.90
3564;DHT22;1796;52.388;13.096;2023-06-26T03:00:13;17.30;99.90
3564;DHT22;1796;52.388;13.096;2023-06-26T03:02:40;17.30;99.90
3564;DHT22;1796;52.388;13.096;2023-06-26T03:05:07;17.30;99.90
3564;DHT22;1796;52.388;13.096;2023-06-26T03:07:35;17.40;99.90
3564;DHT22;1796;52.388;13.096;2023-06-26T03:10:02;17.50;99.90
3564;DHT22;1796;52.388;13.096;2023-06-26T03:12:29;17.50;99.90
3564;DHT22;1796;52.388;13.096;2023-06-26T03:14:56;17.50;99.90
3564;DHT22;1796;52.388;13.096;2023-06-26T03:17:23;17.60;99.90
3564;DHT22;1796;52.388;13.096;2023-06-26T03:19:49;17.50;99.90
3564;DHT22;1796;52.388;13.096;2023-06-26T03:22:16;17.50;99.90
3564;DHT22;1796;52.388;13.096;2023-06-26T03:24:45;17.60;99.90
3564;DHT22;1796;52.388;13.096;2023-06-26T03:27:12;17.50;99.90
3564;DHT22;1796;52.388;13.096;2023-06-26T03:29:39;17.50;99.90
3564;DHT22;1796;52.388;13.096;2023-06-26T03:32:06;17.50;99.90
3564;DHT22;1796;52.388;13.096;2023-06-26T03:34:33;17.50;99.90
3564;DHT22;1796;52.388;13.096;2023-06-26T03:37:00;17.60;99.90
3564;DHT22;1796;52.388;13.096;2023-06-26T03:39:27;17.80;99.90
3564;DHT22;1796;52.388;13.096;2023-06-26T03:41:56;17.90;99.90
3564;DHT22;1796;52.388;13.096;2023-06-26T03:44:26;17.90;99.90
3564;DHT22;1796;52.388;13.096;2023-06-26T03:46:53;18.00;99.90
3564;DHT22;1796;52.388;13.096;2023-06-26T03:49:20;18.10;99.90
3564;DHT22;1796;52.388;13.096;2023-06-26T03:51:47;18.10;99.90
3564;DHT22;1796;52.388;13.096;2023-06-26T03:54:14;18.00;99.90
3564;DHT22;1796;52.388;13.096;2023-06-26T03:56:40;18.00;99.90
3564;DHT22;1796;52.388;13.096;2023-06-26T03:59:09;18.00;99.90
3564;DHT22;1796;52.388;13.096;2023-06-26T04:01:37;18.10;99.90
3564;DHT22;1796;52.388;13.096;2023-06-26T04:04:04;18.20;99.90
3564;DHT22;1796;52.388;13.096;2023-06-26T04:06:31;18.30;99.90
3564;DHT22;1796;52.388;13.096;2023-06-26T04:08:58;18.20;99.90
3564;DHT22;1796;52.388;13.096;2023-06-26T04:11:26;18.20;99.90
3564;DHT22;1796;52.388;13.096;2023-06-26T04:13:52;18.30;99.90
3564;DHT22;1796;52.388;13.096;2023-06-26T04:16:21;18.30;99.90
3564;DHT22;1796;52.388;13.096;2023-06-26T04:18:50;18.40;99.90
3564;DHT22;1796;52.388;13.096;2023-06-26T04:21:17;18.50;99.90
3564;DHT22;1796;52.388;13.096;2023-06-26T04:23:45;18.60;99.90
3564;DHT22;1796;52.388;13.096;2023-06-26T04:26:13;18.60;99.90
3564;DHT22;1796;52.388;13.096;2023-06-26T04:28:40;18.70;99.90
3564;DHT22;1796;52.388;13.096;2023-06-26T04:31:07;19.10;99.90
3564;DHT22;1796;52.388;13.096;2023-06-26T04:33:36;19.70;99.90
3564;DHT22;1796;52.388;13.096;2023-06-26T04:36:03;20.00;99.90
3564;DHT22;1796;52.388;13.096;2023-06-26T04:38:30;20.60;99.90
3564;DHT22;1796;52.388;13.096;2023-06-26T04:40:57;21.40;99.90
3564;DHT22;1796;52.388;13.096;2023-06-26T04:43:24;22.20;99.90
3564;DHT22;1796;52.388;13.096;2023-06-26T04:45:51;22.70;99.90
3564;DHT22;1796;52.388;13.096;2023-06-26T04:48:18;23.00;99.90
3564;DHT22;1796;52.388;13.096;2023-06-26T04:50:46;23.10;99.90
3564;DHT22;1796;52.388;13.096;2023-06-26T04:53:19;23.30;99.90
3564;DHT22;1796;52.388;13.096;2023-06-26T04:55:46;23.20;99.90
3564;DHT22;1796;52.388;13.096;2023-06-26T04:58:13;23.00;99.90
3564;DHT22;1796;52.388;13.096;2023-06-26T05:00:40;22.90;99.90
3564;DHT22;1796;52.388;13.096;2023-06-26T05:03:08;22.50;99.90
3564;DHT22;1796;52.388;13.096;2023-06-26T05:05:35;22.70;99.90
3564;DHT22;1796;52.388;13.096;2023-06-26T05:08:15;23.20;99.90
3564;DHT22;1796;52.388;13.096;2023-06-26T05:10:42;23.50;99.90
3564;DHT22;1796;52.388;13.096;2023-06-26T05:13:09;24.00;99.90
3564;DHT22;1796;52.388;13.096;2023-06-26T05:15:36;24.80;99.90
3564;DHT22;1796;52.388;13.096;2023-06-26T05:18:03;25.40;99.90
3564;DHT22;1796;52.388;13.096;2023-06-26T05:20:31;26.00;99.90
3564;DHT22;1796;52.388;13.096;2023-06-26T05:22:58;25.80;99.90
3564;DHT22;1796;52.388;13.096;2023-06-26T05:25:27;25.50;99.90
3564;DHT22;1796;52.388;13.096;2023-06-26T05:27:56;25.50;99.90
3564;DHT22;1796;52.388;13.096;2023-06-26T05:30:23;25.50;99.90
3564;DHT22;1796;52.388;13.096;2023-06-26T05:32:51;25.90;99.90
3564;DHT22;1796;52.388;13.096;2023-06-26T05:35:20;25.80;99.90
3564;DHT22;1796;52.388;13.096;2023-06-26T05:37:48;26.30;99.90
3564;DHT22;1796;52.388;13.096;2023-06-26T05:40:17;26.70;99.90
3564;DHT22;1796;52.388;13.096;2023-06-26T05:42:47;27.30;99.90
3564;DHT22;1796;52.388;13.096;2023-06-26T05:45:14;27.20;99.90
3564;DHT22;1796;52.388;13.096;2023-06-26T05:47:41;27.60;99.90
3564;DHT22;1796;52.388;13.096;2023-06-26T05:50:09;27.80;99.90
3564;DHT22;1796;52.388;13.096;2023-06-26T05:52:37;27.90;99.90
3564;DHT22;1796;52.388;13.096;2023-06-26T05:55:05;27.80;99.90
3564;DHT22;1796;52.388;13.096;2023-06-26T05:57:33;28.00;99.90
3564;DHT22;1796;52.388;13.096;2023-06-26T06:00:03;28.20;99.90
3564;DHT22;1796;52.388;13.096;2023-06-26T06:02:36;28.20;99.90
3564;DHT22;1796;52.388;13.096;2023-06-26T06:05:03;28.10;99.90
3564;DHT22;1796;52.388;13.096;2023-06-26T06:07:31;28.70;99.90
3564;DHT22;1796;52.388;13.096;2023-06-26T06:09:58;29.20;99.90
3564;DHT22;1796;52.388;13.096;2023-06-26T06:12:25;29.00;99.90
3564;DHT22;1796;52.388;13.096;2023-06-26T06:14:52;29.90;99.90
3564;DHT22;1796;52.388;13.096;2023-06-26T06:17:21;30.00;99.90
3564;DHT22;1796;52.388;13.096;2023-06-26T06:19:48;30.10;99.90
3564;DHT22;1796;52.388;13.096;2023-06-26T06:22:15;30.70;99.90
3564;DHT22;1796;52.388;13.096;2023-06-26T06:24:43;30.50;99.90
3564;DHT22;1796;52.388;13.096;2023-06-26T06:27:10;30.70;99.90
3564;DHT22;1796;52.388;13.096;2023-06-26T06:29:37;30.50;99.90
3564;DHT22;1796;52.388;13.096;2023-06-26T06:32:04;31.40;99.90
3564;DHT22;1796;52.388;13.096;2023-06-26T06:34:33;31.50;99.90
3564;DHT22;1796;52.388;13.096;2023-06-26T06:37:01;31.60;99.90
3564;DHT22;1796;52.388;13.096;2023-06-26T06:39:28;31.80;99.90
3564;DHT22;1796;52.388;13.096;2023-06-26T06:41:55;31.30;99.90
3564;DHT22;1796;52.388;13.096;2023-06-26T06:44:22;31.10;99.90
3564;DHT22;1796;52.388;13.096;2023-06-26T06:46:49;31.70;99.90
3564;DHT22;1796;52.388;13.096;2023-06-26T06:49:16;32.10;99.90
3564;DHT22;1796;52.388;13.096;2023-06-26T06:51:44;32.30;99.90
3564;DHT22;1796;52.388;13.096;2023-06-26T06:54:11;32.20;99.90
3564;DHT22;1796;52.388;13.096;2023-06-26T06:56:38;32.50;99.90
3564;DHT22;1796;52.388;13.096;2023-06-26T06:59:05;31.90;99.90
3564;DHT22;1796;52.388;13.096;2023-06-26T07:01:32;31.80;99.90
3564;DHT22;1796;52.388;13.096;2023-06-26T07:03:59;32.40;99.90
3564;DHT22;1796;52.388;13.096;2023-06-26T07:06:25;32.10;99.90
3564;DHT22;1796;52.388;13.096;2023-06-26T07:08:54;33.10;99.90
3564;DHT22;1796;52.388;13.096;2023-06-26T07:11:20;33.70;99.90
3564;DHT22;1796;52.388;13.096;2023-06-26T07:13:47;34.00;99.90
3564;DHT22;1796;52.388;13.096;2023-06-26T07:16:15;33.90;99.90
3564;DHT22;1796;52.388;13.096;2023-06-26T07:18:42;34.10;99.90
3564;DHT22;1796;52.388;13.096;2023-06-26T07:21:09;34.40;99.90
3564;DHT22;1796;52.388;13.096;2023-06-26T07:23:35;34.30;99.90
3564;DHT22;1796;52.388;13.096;2023-06-26T07:26:04;34.40;99.90
3564;DHT22;1796;52.388;13.096;2023-06-26T07:28:31;35.00;99.90
3564;DHT22;1796;52.388;13.096;2023-06-26T07:30:58;35.00;99.90
3564;DHT22;1796;52.388;13.096;2023-06-26T07:33:24;34.70;99.90
3564;DHT22;1796;52.388;13.096;2023-06-26T07:35:51;35.00;99.90
3564;DHT22;1796;52.388;13.096;2023-06-26T07:38:18;34.70;99.90
3564;DHT22;1796;52.388;13.096;2023-06-26T07:40:45;35.30;99.90
3564;DHT22;1796;52.388;13.096;2023-06-26T07:43:13;35.40;99.90
3564;DHT22;1796;52.388;13.096;2023-06-26T07:45:40;36.10;99.90
3564;DHT22;1796;52.388;13.096;2023-06-26T07:48:07;36.30;99.90
3564;DHT22;1796;52.388;13.096;2023-06-26T07:50:34;36.20;99.90
3564;DHT22;1796;52.388;13.096;2023-06-26T07:53:01;36.20;99.90
3564;DHT22;1796;52.388;13.096;2023-06-26T07:55:28;35.70;99.90
3564;DHT22;1796;52.388;13.096;2023-06-26T07:57:55;35.90;99.90
3564;DHT22;1796;52.388;13.096;2023-06-26T08:00:24;36.10;99.90
3564;DHT22;1796;52.388;13.096;2023-06-26T08:02:51;35.70;99.90
3564;DHT22;1796;52.388;13.096;2023-06-26T08:05:18;35.50;99.90
3564;DHT22;1796;52.388;13.096;2023-06-26T08:07:45;36.60;99.90
3564;DHT22;1796;52.388;13.096;2023-06-26T08:10:12;35.60;99.90
3564;DHT22;1796;52.388;13.096;2023-06-26T08:12:40;35.80;99.90
3564;DHT22;1796;52.388;13.096;2023-06-26T08:15:08;36.60;99.90
3564;DHT22;1796;52.388;13.096;2023-06-26T08:17:37;36.70;99.90
3564;DHT22;1796;52.388;13.096;2023-06-26T08:20:05;37.20;99.90
3564;DHT22;1796;52.388;13.096;2023-06-26T08:22:33;36.40;99.90
3564;DHT22;1796;52.388;13.096;2023-06-26T08:25:01;36.80;99.90
3564;DHT22;1796;52.388;13.096;2023-06-26T08:27:28;37.10;99.90
3564;DHT22;1796;52.388;13.096;2023-06-26T08:29:55;37.20;99.90
3564;DHT22;1796;52.388;13.096;2023-06-26T08:32:22;37.10;99.90
3564;DHT22;1796;52.388;13.096;2023-06-26T08:34:50;35.40;99.90
3564;DHT22;1796;52.388;13.096;2023-06-26T08:37:17;35.10;99.90
3564;DHT22;1796;52.388;13.096;2023-06-26T08:39:44;35.90;99.90
3564;DHT22;1796;52.388;13.096;2023-06-26T08:42:11;36.00;99.90
3564;DHT22;1796;52.388;13.096;2023-06-26T08:44:38;35.20;99.90
3564;DHT22;1796;52.388;13.096;2023-06-26T08:47:05;35.20;99.90
3564;DHT22;1796;52.388;13.096;2023-06-26T08:49:43;35.10;99.90
3564;DHT22;1796;52.388;13.096;2023-06-26T08:52:19;35.00;99.90
3564;DHT22;1796;52.388;13.096;2023-06-26T08:54:52;35.10;99.90
3564;DHT22;1796;52.388;13.096;2023-06-26T08:57:22;35.50;99.90
3564;DHT22;1796;52.388;13.096;2023-06-26T08:59:50;35.30;99.90
3564;DHT22;1796;52.388;13.096;2023-06-26T09:02:18;34.70;99.90
3564;DHT22;1796;52.388;13.096;2023-06-26T09:04:47;34.10;99.90
3564;DHT22;1796;52.388;13.096;2023-06-26T09:07:15;33.40;99.90
3564;DHT22;1796;52.388;13.096;2023-06-26T09:09:42;33.40;99.90
3564;DHT22;1796;52.388;13.096;2023-06-26T09:12:09;32.70;99.90
3564;DHT22;1796;52.388;13.096;2023-06-26T09:14:37;32.30;99.90
3564;DHT22;1796;52.388;13.096;2023-06-26T09:17:04;32.30;99.90
3564;DHT22;1796;52.388;13.096;2023-06-26T09:19:31;32.00;99.90
3564;DHT22;1796;52.388;13.096;2023-06-26T09:21:58;31.90;99.90
3564;DHT22;1796;52.388;13.096;2023-06-26T09:24:27;31.50;99.90
3564;DHT22;1796;52.388;13.096;2023-06-26T09:26:54;31.30;99.90
3564;DHT22;1796;52.388;13.096;2023-06-26T09:29:21;31.20;99.90
3564;DHT22;1796;52.388;13.096;2023-06-26T09:31:51;30.90;99.90
3564;DHT22;1796;52.388;13.096;2023-06-26T09:34:18;31.00;99.90
3564;DHT22;1796;52.388;13.096;2023-06-26T09:36:46;30.90;99.90
3564;DHT22;1796;52.388;13.096;2023-06-26T09:39:14;30.90;99.90
3564;DHT22;1796;52.388;13.096;2023-06-26T09:41:43;30.90;99.90
3564;DHT22;1796;52.388;13.096;2023-06-26T09:44:11;30.80;99.90
3564;DHT22;1796;52.388;13.096;2023-06-26T09:46:39;30.70;99.90
3564;DHT22;1796;52.388;13.096;2023-06-26T09:49:08;30.60;99.90
3564;DHT22;1796;52.388;13.096;2023-06-26T09:51:37;30.70;99.90
3564;DHT22;1796;52.388;13.096;2023-06-26T09:54:05;30.60;99.90
3564;DHT22;1796;52.388;13.096;2023-06-26T09:56:33;30.70;99.90
3564;DHT22;1796;52.388;13.096;2023-06-26T09:59:03;30.70;99.90
3564;DHT22;1796;52.388;13.096;2023-06-26T10:01:31;30.80;99.90
3564;DHT22;1796;52.388;13.096;2023-06-26T10:03:59;30.50;99.90
3564;DHT22;1796;52.388;13.096;2023-06-26T10:06:35;30.60;99.90
3564;DHT22;1796;52.388;13.096;2023-06-26T10:09:03;30.70;99.90
3564;DHT22;1796;52.388;13.096;2023-06-26T10:11:35;30.70;99.90
3564;DHT22;1796;52.388;13.096;2023-06-26T10:14:07;30.80;99.90
3564;DHT22;1796;52.388;13.096;2023-06-26T10:16:36;30.70;99.90
3564;DHT22;1796;52.388;13.096;2023-06-26T10:19:06;30.80;99.90
3564;DHT22;1796;52.388;13.096;2023-06-26T10:21:34;30.80;99.90
3564;DHT22;1796;52.388;13.096;2023-06-26T10:24:03;30.80;99.90
3564;DHT22;1796;52.388;13.096;2023-06-26T10:26:31;30.70;99.90
3564;DHT22;1796;52.388;13.096;2023-06-26T10:29:01;30.70;99.90
3564;DHT22;1796;52.388;13.096;2023-06-26T10:31:30;30.80;99.90
3564;DHT22;1796;52.388;13.096;2023-06-26T10:33:57;31.00;99.90
3564;DHT22;1796;52.388;13.096;2023-06-26T10:36:29;31.00;99.90
3564;DHT22;1796;52.388;13.096;2023-06-26T10:38:58;30.90;99.90
3564;DHT22;1796;52.388;13.096;2023-06-26T10:41:25;31.00;99.90
3564;DHT22;1796;52.388;13.096;2023-06-26T10:44:06;30.80;99.90
3564;DHT22;1796;52.388;13.096;2023-06-26T10:46:48;30.90;99.90
3564;DHT22;1796;52.388;13.096;2023-06-26T10:49:17;31.00;99.90
3564;DHT22;1796;52.388;13.096;2023-06-26T10:51:46;31.10;99.90
3564;DHT22;1796;52.388;13.096;2023-06-26T10:54:15;31.00;99.90
3564;DHT22;1796;52.388;13.096;2023-06-26T10:56:43;31.10;99.90
3564;DHT22;1796;52.388;13.096;2023-06-26T10:59:15;31.20;99.90
3564;DHT22;1796;52.388;13.096;2023-06-26T11:01:45;31.20;99.90
3564;DHT22;1796;52.388;13.096;2023-06-26T11:04:13;31.00;99.90
3564;DHT22;1796;52.388;13.096;2023-06-26T11:06:46;31.00;99.90
3564;DHT22;1796;52.388;13.096;2023-06-26T11:09:17;31.20;99.90
3564;DHT22;1796;52.388;13.096;2023-06-26T11:11:56;31.30;99.90
3564;DHT22;1796;52.388;13.096;2023-06-26T11:14:33;31.50;99.90
3564;DHT22;1796;52.388;13.096;2023-06-26T11:17:04;31.40;99.90
3564;DHT22;1796;52.388;13.096;2023-06-26T11:33:06;31.80;99.90
3564;DHT22;1796;52.388;13.096;2023-06-26T11:35:33;31.50;99.90
3564;DHT22;1796;52.388;13.096;2023-06-26T11:38:02;31.40;99.90
3564;DHT22;1796;52.388;13.096;2023-06-26T11:40:31;31.40;99.90
3564;DHT22;1796;52.388;13.096;2023-06-26T11:42:59;31.40;99.90
3564;DHT22;1796;52.388;13.096;2023-06-26T11:45:28;31.30;99.90
3564;DHT22;1796;52.388;13.096;2023-06-26T11:47:55;31.30;99.90
3564;DHT22;1796;52.388;13.096;2023-06-26T11:50:24;31.40;99.90
3564;DHT22;1796;52.388;13.096;2023-06-26T11:52:54;31.70;99.90
3564;DHT22;1796;52.388;13.096;2023-06-26T11:55:23;31.60;99.90
3564;DHT22;1796;52.388;13.096;2023-06-26T11:57:50;31.40;99.90
3564;DHT22;1796;52.388;13.096;2023-06-26T12:00:17;31.50;99.90
3564;DHT22;1796;52.388;13.096;2023-06-26T12:02:45;31.50;99.90
3564;DHT22;1796;52.388;13.096;2023-06-26T12:05:12;31.70;99.90
3564;DHT22;1796;52.388;13.096;2023-06-26T12:07:44;31.90;99.90
3564;DHT22;1796;52.388;13.096;2023-06-26T12:10:11;31.90;99.90
3564;DHT22;1796;52.388;13.096;2023-06-26T12:12:39;31.90;99.90
3564;DHT22;1796;52.388;13.096;2023-06-26T12:15:08;32.30;99.90
3564;DHT22;1796;52.388;13.096;2023-06-26T12:17:38;32.60;99.90
3564;DHT22;1796;52.388;13.096;2023-06-26T12:20:17;32.60;99.90
3564;DHT22;1796;52.388;13.096;2023-06-26T12:22:47;32.50;99.90
3564;DHT22;1796;52.388;13.096;2023-06-26T12:25:14;32.40;99.90
3564;DHT22;1796;52.388;13.096;2023-06-26T12:27:44;32.20;99.90
3564;DHT22;1796;52.388;13.096;2023-06-26T12:30:11;32.30;99.90
3564;DHT22;1796;52.388;13.096;2023-06-26T12:32:38;32.30;99.90
3564;DHT22;1796;52.388;13.096;2023-06-26T12:35:06;32.00;99.90
3564;DHT22;1796;52.388;13.096;2023-06-26T12:37:36;32.20;99.90
3564;DHT22;1796;52.388;13.096;2023-06-26T12:40:16;32.60;99.90
3564;DHT22;1796;52.388;13.096;2023-06-26T12:42:43;32.80;99.90
3564;DHT22;1796;52.388;13.096;2023-06-26T12:45:13;32.60;99.90
3564;DHT22;1796;52.388;13.096;2023-06-26T12:47:41;32.80;99.90
3564;DHT22;1796;52.388;13.096;2023-06-26T12:50:08;32.80;99.90
3564;DHT22;1796;52.388;13.096;2023-06-26T12:52:35;33.20;99.90
3564;DHT22;1796;52.388;13.096;2023-06-26T12:55:02;33.10;99.90
3564;DHT22;1796;52.388;13.096;2023-06-26T12:57:30;33.10;99.90
3564;DHT22;1796;52.388;13.096;2023-06-26T12:59:57;33.40;99.90
3564;DHT22;1796;52.388;13.096;2023-06-26T13:02:27;33.70;99.90
3564;DHT22;1796;52.388;13.096;2023-06-26T13:04:54;33.80;99.90
3564;DHT22;1796;52.388;13.096;2023-06-26T13:07:21;33.60;99.90
3564;DHT22;1796;52.388;13.096;2023-06-26T13:09:50;33.90;99.90
3564;DHT22;1796;52.388;13.096;2023-06-26T13:12:17;34.30;99.90
3564;DHT22;1796;52.388;13.096;2023-06-26T13:14:45;34.70;99.90
3564;DHT22;1796;52.388;13.096;2023-06-26T13:17:12;34.50;99.90
3564;DHT22;1796;52.388;13.096;2023-06-26T13:19:39;34.70;99.90
3564;DHT22;1796;52.388;13.096;2023-06-26T13:22:06;35.00;99.90
3564;DHT22;1796;52.388;13.096;2023-06-26T13:24:33;34.80;99.90
3564;DHT22;1796;52.388;13.096;2023-06-26T13:27:00;34.80;99.90
3564;DHT22;1796;52.388;13.096;2023-06-26T13:29:27;35.00;99.90
3564;DHT22;1796;52.388;13.096;2023-06-26T13:31:55;34.70;99.90
3564;DHT22;1796;52.388;13.096;2023-06-26T13:34:23;34.00;99.90
3564;DHT22;1796;52.388;13.096;2023-06-26T13:36:53;34.00;99.90
3564;DHT22;1796;52.388;13.096;2023-06-26T13:39:20;34.50;99.90
3564;DHT22;1796;52.388;13.096;2023-06-26T13:41:47;34.60;99.90
3564;DHT22;1796;52.388;13.096;2023-06-26T13:44:14;34.70;99.90
3564;DHT22;1796;52.388;13.096;2023-06-26T13:46:40;34.50;99.90
3564;DHT22;1796;52.388;13.096;2023-06-26T13:49:09;34.30;99.90
3564;DHT22;1796;52.388;13.096;2023-06-26T13:51:35;33.90;99.90
3564;DHT22;1796;52.388;13.096;2023-06-26T13:54:03;33.60;99.90
3564;DHT22;1796;52.388;13.096;2023-06-26T13:56:30;33.30;99.90
3564;DHT22;1796;52.388;13.096;2023-06-26T13:58:57;33.20;99.90
3564;DHT22;1796;52.388;13.096;2023-06-26T14:01:24;32.70;99.90
3564;DHT22;1796;52.388;13.096;2023-06-26T14:03:51;32.30;99.90
3564;DHT22;1796;52.388;13.096;2023-06-26T14:06:19;32.00;99.90
3564;DHT22;1796;52.388;13.096;2023-06-26T14:08:46;31.40;99.90
3564;DHT22;1796;52.388;13.096;2023-06-26T14:11:12;28.60;99.90
3564;DHT22;1796;52.388;13.096;2023-06-26T14:13:41;24.50;99.90
3564;DHT22;1796;52.388;13.096;2023-06-26T14:16:08;22.10;99.90
3564;DHT22;1796;52.388;13.096;2023-06-26T14:18:35;21.20;99.90
3564;DHT22;1796;52.388;13.096;2023-06-26T14:21:02;20.80;99.90
3564;DHT22;1796;52.388;13.096;2023-06-26T14:23:30;20.70;99.90
3564;DHT22;1796;52.388;13.096;2023-06-26T14:25:57;20.50;99.90
3564;DHT22;1796;52.388;13.096;2023-06-26T14:28:24;20.20;99.90
3564;DHT22;1796;52.388;13.096;2023-06-26T14:30:51;20.10;99.90
3564;DHT22;1796;52.388;13.096;2023-06-26T14:33:18;19.60;99.90
3564;DHT22;1796;52.388;13.096;2023-06-26T14:35:45;19.10;99.90
3564;DHT22;1796;52.388;13.096;2023-06-26T14:38:11;18.70;99.90
3564;DHT22;1796;52.388;13.096;2023-06-26T14:40:40;18.60;99.90
3564;DHT22;1796;52.388;13.096;2023-06-26T14:43:06;18.50;99.90
3564;DHT22;1796;52.388;13.096;2023-06-26T14:45:33;18.60;99.90
3564;DHT22;1796;52.388;13.096;2023-06-26T14:48:00;18.60;99.90
3564;DHT22;1796;52.388;13.096;2023-06-26T14:50:27;18.70;99.90
3564;DHT22;1796;52.388;13.096;2023-06-26T14:52:54;18.60;99.90
3564;DHT22;1796;52.388;13.096;2023-06-26T14:55:20;18.60;99.90
3564;DHT22;1796;52.388;13.096;2023-06-26T14:57:49;18.70;99.90
3564;DHT22;1796;52.388;13.096;2023-06-26T15:00:16;18.70;99.90
3564;DHT22;1796;52.388;13.096;2023-06-26T15:02:43;18.50;99.90
3564;DHT22;1796;52.388;13.096;2023-06-26T15:05:10;18.70;99.90
3564;DHT22;1796;52.388;13.096;2023-06-26T15:07:37;18.70;99.90
3564;DHT22;1796;52.388;13.096;2023-06-26T15:10:05;18.80;99.90
3564;DHT22;1796;52.388;13.096;2023-06-26T15:12:32;19.10;99.90
3564;DHT22;1796;52.388;13.096;2023-06-26T15:15:00;19.40;99.90
3564;DHT22;1796;52.388;13.096;2023-06-26T15:17:27;19.80;99.90
3564;DHT22;1796;52.388;13.096;2023-06-26T15:19:54;20.00;99.90
3564;DHT22;1796;52.388;13.096;2023-06-26T15:22:22;20.20;99.90
3564;DHT22;1796;52.388;13.096;2023-06-26T15:24:49;20.10;99.90
3564;DHT22;1796;52.388;13.096;2023-06-26T15:27:16;20.20;99.90
3564;DHT22;1796;52.388;13.096;2023-06-26T15:29:43;20.30;99.90
3564;DHT22;1796;52.388;13.096;2023-06-26T15:32:11;20.40;99.90
3564;DHT22;1796;52.388;13.096;2023-06-26T15:34:38;20.40;99.90
3564;DHT22;1796;52.388;13.096;2023-06-26T15:37:05;20.40;99.90
3564;DHT22;1796;52.388;13.096;2023-06-26T15:39:31;20.00;99.90
3564;DHT22;1796;52.388;13.096;2023-06-26T15:41:58;20.00;99.90
3564;DHT22;1796;52.388;13.096;2023-06-26T15:44:25;19.90;99.90
3564;DHT22;1796;52.388;13.096;2023-06-26T15:46:52;19.90;99.90
3564;DHT22;1796;52.388;13.096;2023-06-26T15:49:20;19.90;99.90
3564;DHT22;1796;52.388;13.096;2023-06-26T15:51:47;20.00;99.90
3564;DHT22;1796;52.388;13.096;2023-06-26T15:54:14;19.90;99.90
3564;DHT22;1796;52.388;13.096;2023-06-26T15:56:41;20.10;99.90
3564;DHT22;1796;52.388;13.096;2023-06-26T15:59:09;20.20;99.90
3564;DHT22;1796;52.388;13.096;2023-06-26T16:01:35;20.40;99.90
3564;DHT22;1796;52.388;13.096;2023-06-26T16:04:02;20.30;99.90